createdAt,value
2019-04-29T00:00:51.528Z,10.53
2019-04-29T00:01:58.836Z,10.17
2019-04-29T00:03:08.111Z,13.17
2019-04-29T00:04:12.523Z,10.00
2019-04-29T00:05:17.349Z,12.87
2019-04-29T00:06:21.944Z,9.87
2019-04-29T00:07:26.509Z,10.47
2019-04-29T00:08:31.210Z,11.73
2019-04-29T00:09:35.588Z,13.80
2019-04-29T00:10:40.151Z,10.07
2019-04-29T00:11:44.919Z,11.40
2019-04-29T00:12:49.385Z,9.40
2019-04-29T00:13:54.315Z,12.83
2019-04-29T00:15:05.073Z,12.63
2019-04-29T00:16:19.095Z,11.27
2019-04-29T00:17:32.234Z,9.80
2019-04-29T00:18:55.034Z,10.33
2019-04-29T00:20:11.997Z,11.60
2019-04-29T00:21:16.641Z,12.13
2019-04-29T00:22:20.977Z,10.57
2019-04-29T00:23:25.463Z,13.87
2019-04-29T00:24:30.010Z,10.33
2019-04-29T00:25:34.551Z,10.60
2019-04-29T00:26:39.091Z,10.50
2019-04-29T00:27:43.790Z,14.87
2019-04-29T00:28:50.413Z,14.17
2019-04-29T00:29:54.481Z,11.97
2019-04-29T00:30:59.767Z,9.33
2019-04-29T00:32:04.331Z,11.05
2019-04-29T00:33:08.989Z,13.30
2019-04-29T00:34:13.561Z,7.93
2019-04-29T00:35:18.100Z,10.87
2019-04-29T00:36:24.480Z,12.10
2019-04-29T00:38:03.427Z,10.77
2019-04-29T00:39:25.925Z,11.43
2019-04-29T00:40:55.474Z,12.33
2019-04-29T00:42:19.851Z,8.73
2019-04-29T00:43:38.868Z,13.03
2019-04-29T00:44:43.384Z,15.60
2019-04-29T00:45:48.034Z,13.13
2019-04-29T00:46:52.471Z,9.63
2019-04-29T00:47:57.092Z,14.23
2019-04-29T00:49:01.577Z,13.87
2019-04-29T00:50:06.990Z,9.00
2019-04-29T00:51:11.523Z,12.37
2019-04-29T00:52:16.319Z,9.47
2019-04-29T00:53:20.699Z,13.43
2019-04-29T00:54:31.458Z,10.43
2019-04-29T00:55:35.845Z,11.97
2019-04-29T00:56:40.714Z,13.00
2019-04-29T00:57:45.247Z,9.77
2019-04-29T00:58:49.698Z,14.53
2019-04-29T00:59:54.140Z,14.47
2019-04-29T01:00:59.132Z,10.77
2019-04-29T01:02:04.015Z,11.23
2019-04-29T01:03:08.702Z,10.93
2019-04-29T01:04:13.196Z,12.43
2019-04-29T01:05:17.604Z,12.37
2019-04-29T01:06:22.251Z,14.73
2019-04-29T01:07:26.649Z,11.40
2019-04-29T01:08:31.258Z,15.90
2019-04-29T01:09:36.041Z,12.50
2019-04-29T01:10:40.523Z,13.07
2019-04-29T01:11:44.839Z,14.73
2019-04-29T01:12:49.350Z,18.73
2019-04-29T01:13:53.790Z,16.77
2019-04-29T01:14:58.304Z,15.30
2019-04-29T01:16:02.886Z,17.03
2019-04-29T01:17:07.424Z,20.60
2019-04-29T01:18:11.957Z,15.73
2019-04-29T01:19:16.388Z,18.83
2019-04-29T01:20:20.842Z,19.77
2019-04-29T01:21:25.199Z,23.63
2019-04-29T01:22:30.313Z,20.93
2019-04-29T01:23:34.822Z,19.67
2019-04-29T01:24:39.365Z,23.30
2019-04-29T01:25:45.514Z,21.23
2019-04-29T01:27:04.666Z,28.13
2019-04-29T01:28:28.176Z,24.57
2019-04-29T01:29:32.879Z,25.87
2019-04-29T01:31:31.045Z,29.13
2019-04-29T01:32:35.390Z,29.87
2019-04-29T01:33:39.871Z,26.47
2019-04-29T01:34:52.617Z,28.30
2019-04-29T01:36:10.951Z,31.20
2019-04-29T01:37:15.357Z,30.27
2019-04-29T01:38:19.794Z,28.13
2019-04-29T01:39:29.527Z,32.03
2019-04-29T01:41:02.516Z,44.10
2019-04-29T01:42:17.714Z,28.13
2019-04-29T01:43:22.143Z,28.80
2019-04-29T01:44:27.893Z,30.87
2019-04-29T01:45:32.469Z,29.90
2019-04-29T01:46:37.053Z,31.67
2019-04-29T01:47:41.393Z,31.43
2019-04-29T01:48:45.872Z,35.37
2019-04-29T01:49:50.366Z,32.10
2019-04-29T01:50:54.733Z,34.43
2019-04-29T01:51:59.249Z,33.03
2019-04-29T01:53:03.841Z,32.50
2019-04-29T01:54:08.367Z,35.73
2019-04-29T01:55:12.896Z,33.33
2019-04-29T01:56:17.265Z,38.87
2019-04-29T01:57:21.786Z,31.83
2019-04-29T01:58:26.249Z,33.93
2019-04-29T01:59:30.836Z,38.00
2019-04-29T02:00:35.392Z,33.57
2019-04-29T02:01:39.920Z,37.50
2019-04-29T02:03:48.040Z,35.67
2019-04-29T02:04:52.573Z,36.30
2019-04-29T02:05:57.080Z,33.43
2019-04-29T02:07:01.658Z,33.37
2019-04-29T02:08:06.152Z,31.90
2019-04-29T02:09:14.783Z,30.80
2019-04-29T02:10:25.762Z,33.63
2019-04-29T02:11:30.276Z,33.17
2019-04-29T02:12:35.005Z,33.10
2019-04-29T02:13:39.399Z,30.17
2019-04-29T02:14:44.206Z,30.00
2019-04-29T02:15:48.643Z,30.83
2019-04-29T02:16:53.173Z,28.53
2019-04-29T02:17:57.845Z,28.40
2019-04-29T02:19:02.213Z,28.97
2019-04-29T02:20:07.002Z,29.47
2019-04-29T02:21:11.359Z,27.83
2019-04-29T02:22:29.852Z,27.67
2019-04-29T02:23:38.871Z,27.80
2019-04-29T02:24:46.762Z,28.73
2019-04-29T02:25:51.242Z,32.90
2019-04-29T02:26:55.620Z,34.03
2019-04-29T02:28:00.131Z,30.23
2019-04-29T02:29:05.111Z,27.60
2019-04-29T02:30:10.736Z,27.40
2019-04-29T02:31:33.110Z,28.77
2019-04-29T02:32:37.502Z,27.23
2019-04-29T02:33:42.012Z,30.77
2019-04-29T02:34:46.485Z,28.40
2019-04-29T02:35:51.014Z,30.27
2019-04-29T02:36:56.302Z,28.63
2019-04-29T02:38:00.810Z,30.93
2019-04-29T02:39:27.421Z,31.03
2019-04-29T02:40:38.414Z,27.57
2019-04-29T02:42:01.896Z,30.47
2019-04-29T02:43:12.071Z,28.87
2019-04-29T02:44:16.569Z,29.45
2019-04-29T02:45:24.548Z,31.67
2019-04-29T02:46:29.025Z,29.80
2019-04-29T02:47:33.458Z,31.40
2019-04-29T02:48:37.981Z,29.53
2019-04-29T02:49:42.427Z,28.40
2019-04-29T02:50:46.812Z,27.43
2019-04-29T02:51:53.979Z,31.17
2019-04-29T02:52:58.492Z,33.50
2019-04-29T02:54:02.896Z,29.80
2019-04-29T02:55:08.547Z,30.27
2019-04-29T02:56:12.916Z,27.00
2019-04-29T02:57:29.643Z,30.30
2019-04-29T02:58:49.351Z,31.73
2019-04-29T02:59:57.112Z,27.87
2019-04-29T03:01:09.665Z,25.37
2019-04-29T03:02:41.721Z,28.57
2019-04-29T03:03:56.064Z,27.40
2019-04-29T03:05:19.011Z,25.77
2019-04-29T03:06:23.502Z,25.00
2019-04-29T03:07:28.203Z,28.77
2019-04-29T03:08:32.851Z,25.87
2019-04-29T03:09:45.188Z,23.33
2019-04-29T03:10:49.663Z,28.47
2019-04-29T03:11:54.275Z,24.70
2019-04-29T03:12:58.954Z,24.43
2019-04-29T03:14:03.570Z,24.97
2019-04-29T03:15:08.935Z,28.33
2019-04-29T03:16:13.423Z,24.63
2019-04-29T03:17:18.805Z,24.83
2019-04-29T03:18:25.844Z,23.97
2019-04-29T03:19:34.587Z,25.57
2019-04-29T03:20:52.934Z,25.20
2019-04-29T03:21:58.779Z,23.23
2019-04-29T03:23:11.420Z,24.17
2019-04-29T03:24:15.870Z,24.00
2019-04-29T03:25:20.355Z,24.27
2019-04-29T03:26:24.947Z,22.03
2019-04-29T03:27:29.922Z,24.73
2019-04-29T03:28:34.472Z,21.67
2019-04-29T03:29:38.966Z,24.27
2019-04-29T03:30:43.432Z,25.67
2019-04-29T03:31:47.883Z,21.43
2019-04-29T03:32:52.334Z,23.13
2019-04-29T03:33:56.746Z,22.80
2019-04-29T03:35:01.270Z,23.57
2019-04-29T03:36:05.771Z,23.30
2019-04-29T03:37:10.320Z,23.77
2019-04-29T03:38:14.928Z,26.60
2019-04-29T03:39:19.442Z,18.80
2019-04-29T03:40:23.849Z,19.97
2019-04-29T03:41:28.360Z,24.47
2019-04-29T03:42:33.206Z,24.00
2019-04-29T03:43:37.724Z,19.53
2019-04-29T03:44:42.207Z,24.20
2019-04-29T03:45:46.554Z,21.33
2019-04-29T03:46:50.996Z,22.37
2019-04-29T03:47:55.586Z,23.43
2019-04-29T03:49:00.087Z,21.47
2019-04-29T03:50:05.042Z,20.83
2019-04-29T03:51:09.487Z,22.83
2019-04-29T03:52:13.990Z,21.50
2019-04-29T03:53:18.381Z,25.03
2019-04-29T03:54:22.869Z,25.00
2019-04-29T03:55:38.923Z,26.80
2019-04-29T03:56:33.549Z,25.53
2019-04-29T03:57:38.339Z,27.93
2019-04-29T03:58:42.690Z,26.47
2019-04-29T03:59:47.401Z,26.07
2019-04-29T04:00:54.997Z,24.73
2019-04-29T04:02:08.983Z,33.30
2019-04-29T04:03:30.120Z,28.07
2019-04-29T04:04:52.655Z,29.80
2019-04-29T04:06:12.285Z,28.57
2019-04-29T04:07:34.722Z,29.13
2019-04-29T04:08:44.861Z,31.97
2019-04-29T04:09:49.242Z,32.10
2019-04-29T04:10:53.696Z,33.67
2019-04-29T04:11:58.109Z,33.20
2019-04-29T04:13:02.454Z,31.97
2019-04-29T04:14:06.890Z,35.30
2019-04-29T04:15:11.692Z,39.00
2019-04-29T04:16:27.757Z,38.30
2019-04-29T04:17:40.073Z,38.57
2019-04-29T04:18:44.816Z,42.77
2019-04-29T04:19:49.243Z,40.07
2019-04-29T04:20:53.710Z,43.57
2019-04-29T04:21:58.061Z,42.33
2019-04-29T04:23:02.420Z,40.13
2019-04-29T04:24:06.897Z,41.83
2019-04-29T04:25:11.253Z,41.63
2019-04-29T04:26:15.749Z,41.80
2019-04-29T04:27:20.302Z,41.60
2019-04-29T04:28:24.733Z,39.10
2019-04-29T04:29:29.052Z,42.80
2019-04-29T04:30:33.375Z,35.97
2019-04-29T04:31:37.844Z,45.37
2019-04-29T04:32:42.272Z,46.03
2019-04-29T04:33:46.732Z,40.17
2019-04-29T04:34:51.169Z,43.10
2019-04-29T04:35:55.668Z,44.87
2019-04-29T04:37:00.579Z,38.47
2019-04-29T04:38:05.098Z,38.00
2019-04-29T04:39:09.692Z,41.35
2019-04-29T04:40:19.187Z,40.40
2019-04-29T04:41:23.600Z,42.20
2019-04-29T04:42:30.038Z,40.80
2019-04-29T04:43:33.984Z,39.03
2019-04-29T04:44:50.621Z,44.23
2019-04-29T04:45:55.062Z,40.37
2019-04-29T04:46:59.402Z,44.30
2019-04-29T04:48:03.818Z,50.10
2019-04-29T04:49:08.225Z,49.70
2019-04-29T04:50:12.712Z,49.83
2019-04-29T04:51:17.065Z,51.73
2019-04-29T04:52:21.396Z,51.83
2019-04-29T04:53:25.720Z,54.70
2019-04-29T04:54:31.534Z,67.00
2019-04-29T04:55:37.845Z,49.33
2019-04-29T04:56:42.257Z,51.60
2019-04-29T04:57:46.641Z,59.73
2019-04-29T04:58:50.977Z,57.87
2019-04-29T04:59:55.316Z,52.67
2019-04-29T05:00:59.685Z,51.73
2019-04-29T05:02:04.113Z,59.00
2019-04-29T05:03:08.535Z,54.97
2019-04-29T05:04:13.073Z,59.50
2019-04-29T05:05:17.438Z,59.13
2019-04-29T05:06:22.457Z,57.77
2019-04-29T05:07:26.768Z,57.17
2019-04-29T05:08:31.085Z,55.53
2019-04-29T05:09:35.384Z,61.50
2019-04-29T05:10:39.725Z,60.30
2019-04-29T05:11:44.084Z,58.73
2019-04-29T05:12:48.502Z,62.47
2019-04-29T05:13:52.880Z,63.17
2019-04-29T05:14:57.231Z,65.83
2019-04-29T05:16:01.675Z,65.50
2019-04-29T05:17:06.082Z,65.00
2019-04-29T05:18:10.393Z,66.20
2019-04-29T05:19:14.906Z,60.43
2019-04-29T05:20:19.297Z,69.30
2019-04-29T05:21:23.645Z,74.20
2019-04-29T05:22:28.010Z,69.67
2019-04-29T05:23:32.401Z,70.85
2019-04-29T05:24:36.812Z,66.43
2019-04-29T05:25:41.201Z,70.27
2019-04-29T05:26:45.527Z,69.17
2019-04-29T05:27:49.880Z,66.10
2019-04-29T05:28:54.216Z,62.77
2019-04-29T05:29:58.540Z,74.23
2019-04-29T05:31:02.868Z,70.67
2019-04-29T05:32:07.284Z,66.17
2019-04-29T05:33:11.612Z,68.47
2019-04-29T05:34:16.058Z,62.90
2019-04-29T05:35:24.962Z,66.80
2019-04-29T05:36:38.232Z,66.83
2019-04-29T05:37:51.541Z,69.95
2019-04-29T05:39:00.400Z,68.67
2019-04-29T05:40:05.268Z,69.40
2019-04-29T05:41:09.672Z,78.00
2019-04-29T05:42:17.104Z,79.40
2019-04-29T05:43:27.236Z,68.73
2019-04-29T05:44:36.847Z,76.60
2019-04-29T05:45:50.832Z,77.43
2019-04-29T05:46:58.407Z,92.27
2019-04-29T05:48:08.486Z,82.03
2019-04-29T05:49:15.004Z,89.37
2019-04-29T05:50:28.965Z,82.67
2019-04-29T05:51:48.470Z,85.20
2019-04-29T05:53:24.713Z,83.37
2019-04-29T05:54:31.763Z,88.33
2019-04-29T05:55:35.163Z,97.50
2019-04-29T05:56:39.646Z,82.87
2019-04-29T05:57:43.991Z,82.70
2019-04-29T05:58:48.324Z,81.27
2019-04-29T05:59:52.690Z,86.50
2019-04-29T06:01:04.393Z,87.20
2019-04-29T06:02:08.812Z,72.93
2019-04-29T06:03:13.253Z,91.97
2019-04-29T06:04:18.284Z,82.20
2019-04-29T06:05:22.768Z,70.63
2019-04-29T06:06:27.344Z,81.73
2019-04-29T06:07:31.681Z,81.07
2019-04-29T06:08:39.226Z,88.23
2019-04-29T06:09:42.285Z,86.67
2019-04-29T06:10:46.989Z,87.10
2019-04-29T06:11:51.409Z,85.77
2019-04-29T06:12:55.782Z,81.97
2019-04-29T06:14:00.154Z,93.33
2019-04-29T06:15:04.830Z,94.87
2019-04-29T06:16:09.179Z,87.93
2019-04-29T06:17:13.602Z,105.20
2019-04-29T06:18:22.157Z,93.50
2019-04-29T06:19:24.045Z,88.83
2019-04-29T06:20:28.531Z,91.63
2019-04-29T06:21:32.996Z,84.43
2019-04-29T06:22:37.859Z,93.07
2019-04-29T06:23:43.752Z,81.30
2019-04-29T06:24:48.259Z,88.10
2019-04-29T06:25:52.680Z,92.80
2019-04-29T06:26:57.273Z,96.20
2019-04-29T06:28:01.696Z,89.63
2019-04-29T06:29:06.241Z,94.20
2019-04-29T06:30:11.090Z,95.45
2019-04-29T06:31:15.549Z,99.17
2019-04-29T06:32:20.305Z,104.33
2019-04-29T06:33:29.172Z,103.90
2019-04-29T06:34:35.595Z,85.83
2019-04-29T06:35:38.168Z,89.20
2019-04-29T06:36:42.647Z,91.47
2019-04-29T06:37:46.992Z,95.10
2019-04-29T06:38:51.430Z,90.30
2019-04-29T06:39:55.756Z,97.60
2019-04-29T06:41:00.207Z,90.17
2019-04-29T06:42:04.712Z,96.10
2019-04-29T06:43:09.063Z,103.23
2019-04-29T06:44:16.687Z,88.57
2019-04-29T06:45:19.664Z,98.87
2019-04-29T06:46:23.995Z,119.90
2019-04-29T06:47:28.320Z,99.87
2019-04-29T06:48:32.760Z,90.43
2019-04-29T06:49:37.164Z,109.47
2019-04-29T06:50:41.596Z,101.27
2019-04-29T06:51:46.026Z,106.50
2019-04-29T06:52:50.393Z,98.50
2019-04-29T06:53:54.792Z,109.37
2019-04-29T06:54:59.126Z,103.93
2019-04-29T06:56:03.473Z,106.90
2019-04-29T06:57:07.840Z,95.70
2019-04-29T06:58:12.171Z,95.87
2019-04-29T06:59:16.577Z,94.67
2019-04-29T07:00:22.249Z,80.77
2019-04-29T07:01:27.042Z,101.20
2019-04-29T07:02:31.473Z,104.90
2019-04-29T07:03:35.813Z,102.23
2019-04-29T07:04:40.220Z,104.07
2019-04-29T07:05:44.631Z,96.87
2019-04-29T07:06:57.351Z,107.67
2019-04-29T07:07:55.114Z,127.20
2019-04-29T07:09:02.747Z,109.40
2019-04-29T07:10:07.550Z,116.93
2019-04-29T07:11:12.138Z,108.00
2019-04-29T07:12:16.554Z,131.47
2019-04-29T07:13:22.865Z,116.00
2019-04-29T07:14:28.419Z,113.67
2019-04-29T07:15:33.241Z,104.33
2019-04-29T07:16:37.682Z,113.50
2019-04-29T07:17:43.046Z,108.43
2019-04-29T07:18:51.239Z,102.60
2019-04-29T07:19:53.559Z,104.57
2019-04-29T07:20:58.026Z,93.90
2019-04-29T07:22:02.465Z,82.60
2019-04-29T07:23:06.856Z,99.43
2019-04-29T07:24:11.313Z,91.67
2019-04-29T07:25:15.810Z,91.93
2019-04-29T07:26:20.247Z,92.30
2019-04-29T07:27:24.569Z,96.77
2019-04-29T07:28:28.908Z,103.17
2019-04-29T07:29:33.525Z,108.23
2019-04-29T07:30:59.955Z,113.20
2019-04-29T07:31:44.137Z,99.90
2019-04-29T07:32:48.983Z,101.97
2019-04-29T07:33:57.563Z,98.63
2019-04-29T07:34:59.625Z,79.97
2019-04-29T07:36:10.794Z,93.20
2019-04-29T07:37:10.211Z,101.27
2019-04-29T07:38:14.875Z,118.77
2019-04-29T07:39:19.297Z,102.00
2019-04-29T07:40:23.907Z,92.90
2019-04-29T07:41:28.282Z,97.07
2019-04-29T07:42:33.415Z,77.73
2019-04-29T07:43:38.618Z,99.13
2019-04-29T07:45:03.138Z,85.13
2019-04-29T07:46:28.778Z,90.60
2019-04-29T07:47:33.497Z,95.57
2019-04-29T07:48:41.827Z,81.20
2019-04-29T07:49:47.401Z,88.47
2019-04-29T07:50:50.110Z,92.03
2019-04-29T07:51:54.772Z,102.13
2019-04-29T07:52:59.278Z,84.47
2019-04-29T07:54:03.883Z,104.93
2019-04-29T07:55:08.691Z,98.07
2019-04-29T07:56:13.072Z,102.67
2019-04-29T07:57:18.054Z,81.20
2019-04-29T07:58:23.024Z,82.30
2019-04-29T07:59:28.893Z,90.77
2019-04-29T08:00:34.796Z,88.37
2019-04-29T08:01:39.191Z,83.03
2019-04-29T08:02:43.705Z,94.67
2019-04-29T08:03:48.584Z,81.83
2019-04-29T08:04:53.088Z,80.13
2019-04-29T08:05:58.747Z,78.97
2019-04-29T08:07:03.909Z,79.17
2019-04-29T08:08:08.351Z,73.83
2019-04-29T08:09:12.875Z,92.00
2019-04-29T08:10:23.538Z,102.67
2019-04-29T08:11:23.616Z,107.37
2019-04-29T08:12:28.237Z,86.63
2019-04-29T08:13:33.830Z,78.63
2019-04-29T08:14:39.863Z,77.90
2019-04-29T08:15:44.351Z,74.90
2019-04-29T08:16:49.083Z,64.80
2019-04-29T08:18:05.936Z,72.13
2019-04-29T08:18:59.913Z,69.00
2019-04-29T08:20:05.150Z,71.67
2019-04-29T08:21:14.301Z,69.73
2019-04-29T08:22:18.373Z,59.20
2019-04-29T08:23:22.930Z,62.40
2019-04-29T08:24:28.470Z,51.70
2019-04-29T08:25:33.245Z,55.10
2019-04-29T08:26:46.796Z,60.10
2019-04-29T08:27:43.909Z,47.63
2019-04-29T08:28:52.218Z,49.03
2019-04-29T08:29:54.816Z,50.97
2019-04-29T08:30:59.217Z,54.60
2019-04-29T08:32:03.765Z,66.60
2019-04-29T08:33:11.925Z,60.70
2019-04-29T08:34:14.303Z,58.57
2019-04-29T08:35:18.723Z,62.33
2019-04-29T08:36:23.060Z,58.97
2019-04-29T08:37:27.597Z,62.07
2019-04-29T08:38:32.084Z,58.63
2019-04-29T08:39:36.534Z,45.97
2019-04-29T08:40:45.119Z,50.20
2019-04-29T08:41:47.093Z,46.63
2019-04-29T08:42:57.500Z,50.03
2019-04-29T08:44:23.776Z,50.87
2019-04-29T08:45:34.715Z,47.10
2019-04-29T08:46:51.350Z,49.90
2019-04-29T08:47:50.180Z,48.90
2019-04-29T08:48:55.403Z,50.20
2019-04-29T08:49:59.764Z,54.10
2019-04-29T08:51:04.402Z,54.87
2019-04-29T08:52:08.816Z,62.13
2019-04-29T08:53:13.161Z,57.03
2019-04-29T08:54:19.948Z,56.57
2019-04-29T08:55:26.600Z,53.77
2019-04-29T08:56:29.658Z,54.07
2019-04-29T08:57:36.612Z,55.07
2019-04-29T08:58:44.369Z,56.57
2019-04-29T08:59:46.203Z,62.43
2019-04-29T09:00:51.404Z,62.73
2019-04-29T09:01:56.737Z,54.47
2019-04-29T09:03:01.109Z,58.67
2019-04-29T09:04:05.590Z,63.57
2019-04-29T09:05:13.150Z,52.03
2019-04-29T09:06:20.127Z,49.27
2019-04-29T09:07:24.573Z,46.70
2019-04-29T09:08:33.014Z,47.23
2019-04-29T09:09:35.029Z,51.27
2019-04-29T09:10:39.429Z,50.80
2019-04-29T09:11:47.824Z,45.43
2019-04-29T09:12:49.861Z,50.63
2019-04-29T09:13:54.341Z,45.00
2019-04-29T09:14:58.771Z,48.47
2019-04-29T09:16:03.213Z,47.53
2019-04-29T09:17:19.818Z,48.30
2019-04-29T09:18:13.705Z,46.50
2019-04-29T09:19:18.062Z,44.00
2019-04-29T09:20:22.522Z,48.90
2019-04-29T09:21:26.991Z,49.00
2019-04-29T09:22:33.134Z,44.00
2019-04-29T09:23:37.587Z,47.73
2019-04-29T09:25:01.045Z,41.20
2019-04-29T09:26:28.682Z,40.73
2019-04-29T09:27:33.205Z,49.83
2019-04-29T09:28:37.561Z,43.07
2019-04-29T09:29:42.001Z,45.70
2019-04-29T09:30:46.679Z,39.17
2019-04-29T09:31:51.345Z,41.50
2019-04-29T09:32:55.684Z,43.83
2019-04-29T09:34:06.661Z,39.90
2019-04-29T09:35:07.230Z,39.93
2019-04-29T09:36:13.913Z,41.33
2019-04-29T09:37:18.596Z,41.53
2019-04-29T09:38:23.724Z,38.47
2019-04-29T09:39:41.923Z,38.10
2019-04-29T09:40:38.362Z,38.43
2019-04-29T09:41:54.368Z,34.83
2019-04-29T09:43:16.476Z,34.40
2019-04-29T09:44:42.856Z,34.20
2019-04-29T09:46:02.549Z,37.13
2019-04-29T09:47:08.502Z,38.17
2019-04-29T09:48:13.607Z,36.03
2019-04-29T09:49:17.932Z,41.93
2019-04-29T09:50:22.274Z,37.97
2019-04-29T09:51:27.726Z,33.93
2019-04-29T09:52:32.894Z,31.83
2019-04-29T09:53:37.329Z,29.23
2019-04-29T09:54:41.734Z,31.07
2019-04-29T09:55:46.191Z,27.37
2019-04-29T09:56:50.541Z,24.80
2019-04-29T09:57:54.921Z,28.97
2019-04-29T09:59:17.341Z,25.93
2019-04-29T10:00:53.279Z,26.97
2019-04-29T10:02:26.218Z,33.30
2019-04-29T10:03:37.418Z,27.13
2019-04-29T10:04:56.474Z,28.50
2019-04-29T10:06:05.057Z,28.87
2019-04-29T10:07:10.574Z,27.40
2019-04-29T10:08:15.077Z,24.23
2019-04-29T10:09:19.584Z,25.23
2019-04-29T10:10:24.006Z,24.13
2019-04-29T10:11:28.601Z,26.17
2019-04-29T10:12:34.270Z,25.30
2019-04-29T10:13:38.762Z,25.10
2019-04-29T10:14:43.287Z,26.67
2019-04-29T10:16:21.936Z,25.13
2019-04-29T10:17:37.203Z,24.07
2019-04-29T10:18:49.572Z,27.00
2019-04-29T10:20:02.408Z,22.07
2019-04-29T10:21:23.282Z,24.90
2019-04-29T10:22:28.824Z,23.00
2019-04-29T10:23:33.181Z,24.50
2019-04-29T10:24:37.784Z,28.40
2019-04-29T10:25:42.209Z,26.90
2019-04-29T10:26:46.561Z,30.23
2019-04-29T10:27:50.908Z,29.50
2019-04-29T10:28:59.392Z,28.30
2019-04-29T10:30:04.335Z,28.17
2019-04-29T10:31:09.220Z,31.57
2019-04-29T10:32:13.802Z,26.53
2019-04-29T10:33:19.431Z,27.17
2019-04-29T10:34:26.893Z,26.73
2019-04-29T10:35:30.725Z,25.90
2019-04-29T10:36:35.251Z,30.90
2019-04-29T10:37:39.901Z,28.17
2019-04-29T10:38:45.945Z,25.80
2019-04-29T10:40:10.491Z,28.00
2019-04-29T10:41:21.649Z,27.87
2019-04-29T10:42:34.820Z,29.67
2019-04-29T10:44:09.474Z,27.83
2019-04-29T10:45:30.768Z,29.27
2019-04-29T10:46:52.792Z,28.53
2019-04-29T10:48:10.226Z,27.03
2019-04-29T10:49:20.486Z,25.77
2019-04-29T10:50:31.653Z,28.03
2019-04-29T10:51:36.088Z,28.43
2019-04-29T10:52:43.252Z,27.97
2019-04-29T10:53:51.116Z,27.77
2019-04-29T10:54:55.221Z,25.90
2019-04-29T10:56:00.859Z,28.67
2019-04-29T10:57:05.770Z,26.50
2019-04-29T10:58:10.268Z,27.60
2019-04-29T10:59:14.753Z,29.90
2019-04-29T11:00:43.612Z,28.60
2019-04-29T11:02:30.878Z,29.30
2019-04-29T11:03:35.325Z,31.60
2019-04-29T11:04:39.728Z,29.13
2019-04-29T11:06:00.101Z,26.97
2019-04-29T11:06:53.679Z,30.23
2019-04-29T11:08:02.616Z,31.20
2019-04-29T11:09:31.172Z,31.97
2019-04-29T11:10:35.669Z,28.40
2019-04-29T11:11:41.039Z,26.80
2019-04-29T11:12:45.528Z,29.70
2019-04-29T11:13:50.652Z,27.60
2019-04-29T11:14:55.209Z,31.83
2019-04-29T11:15:59.620Z,27.23
2019-04-29T11:17:04.108Z,28.33
2019-04-29T11:18:08.846Z,27.90
2019-04-29T11:19:13.354Z,26.60
2019-04-29T11:20:21.366Z,26.40
2019-04-29T11:21:25.063Z,24.43
2019-04-29T11:22:38.369Z,26.50
2019-04-29T11:24:00.303Z,26.40
2019-04-29T11:25:23.129Z,26.17
2019-04-29T11:26:35.648Z,27.57
2019-04-29T11:27:46.530Z,25.57
2019-04-29T11:28:52.248Z,26.20
2019-04-29T11:29:58.529Z,25.27
2019-04-29T11:31:03.193Z,24.70
2019-04-29T11:32:13.511Z,25.13
2019-04-29T11:33:27.083Z,27.80
2019-04-29T11:34:48.607Z,26.57
2019-04-29T11:36:05.909Z,25.03
2019-04-29T11:37:13.859Z,28.77
2019-04-29T11:38:18.434Z,25.87
2019-04-29T11:39:22.861Z,30.43
2019-04-29T11:40:42.777Z,28.30
2019-04-29T11:41:33.465Z,27.73
2019-04-29T11:42:41.697Z,27.77
2019-04-29T11:43:46.768Z,27.80
2019-04-29T11:44:51.872Z,30.73
2019-04-29T11:45:56.424Z,30.00
2019-04-29T11:47:00.830Z,28.07
2019-04-29T11:48:05.739Z,30.47
2019-04-29T11:49:11.316Z,25.47
2019-04-29T11:50:34.264Z,31.27
2019-04-29T11:52:05.331Z,26.00
2019-04-29T11:52:47.125Z,30.40
2019-04-29T11:53:51.568Z,27.50
2019-04-29T11:54:56.102Z,25.57
2019-04-29T11:56:00.615Z,23.90
2019-04-29T11:57:07.856Z,24.27
2019-04-29T11:58:19.820Z,24.43
2019-04-29T11:59:49.323Z,22.70
2019-04-29T12:01:08.486Z,24.43
2019-04-29T12:02:45.887Z,22.67
2019-04-29T12:03:46.618Z,22.87
2019-04-29T12:05:08.716Z,24.47
2019-04-29T12:06:16.117Z,21.83
2019-04-29T12:07:21.139Z,25.30
2019-04-29T12:08:24.695Z,23.37
2019-04-29T12:09:30.643Z,22.60
2019-04-29T12:10:38.272Z,23.90
2019-04-29T12:11:41.960Z,22.83
2019-04-29T12:12:47.778Z,24.17
2019-04-29T12:14:03.151Z,24.90
2019-04-29T12:15:23.807Z,23.97
2019-04-29T12:16:32.113Z,25.53
2019-04-29T12:17:41.041Z,27.20
2019-04-29T12:18:49.564Z,24.57
2019-04-29T12:19:56.296Z,24.27
2019-04-29T12:21:06.084Z,22.13
2019-04-29T12:22:25.400Z,22.77
2019-04-29T12:23:17.298Z,21.60
2019-04-29T12:24:22.041Z,20.53
2019-04-29T12:25:27.404Z,19.63
2019-04-29T12:26:35.007Z,20.10
2019-04-29T12:27:39.193Z,20.83
2019-04-29T12:28:44.541Z,20.37
2019-04-29T12:29:53.782Z,22.50
2019-04-29T12:30:58.688Z,19.00
2019-04-29T12:32:25.076Z,20.57
2019-04-29T12:33:32.498Z,20.70
2019-04-29T12:34:48.827Z,19.10
2019-04-29T12:35:58.672Z,19.13
2019-04-29T12:37:06.076Z,18.73
2019-04-29T12:38:39.305Z,19.77
2019-04-29T12:39:51.312Z,19.25
2019-04-29T12:41:21.447Z,19.50
2019-04-29T12:42:46.033Z,18.77
2019-04-29T12:44:09.476Z,20.43
2019-04-29T12:45:33.087Z,19.90
2019-04-29T12:46:43.365Z,19.70
2019-04-29T12:47:47.773Z,21.20
2019-04-29T12:48:52.105Z,19.57
2019-04-29T12:49:56.523Z,19.60
2019-04-29T12:51:00.913Z,18.97
2019-04-29T12:52:05.383Z,17.67
2019-04-29T12:53:09.829Z,17.98
2019-04-29T12:54:14.284Z,20.92
2019-04-29T12:55:42.871Z,19.50
2019-04-29T12:56:36.721Z,17.98
2019-04-29T12:57:41.061Z,18.75
2019-04-29T12:58:50.276Z,17.50
2019-04-29T12:59:54.362Z,17.62
2019-04-29T13:01:05.673Z,18.98
2019-04-29T13:02:19.964Z,18.57
2019-04-29T13:03:39.866Z,18.23
2019-04-29T13:05:09.241Z,18.15
2019-04-29T13:06:39.182Z,18.20
2019-04-29T13:07:50.568Z,18.95
2019-04-29T13:08:57.079Z,18.05
2019-04-29T13:10:08.528Z,18.65
2019-04-29T13:11:14.778Z,18.62
2019-04-29T13:12:20.102Z,19.85
2019-04-29T13:13:24.599Z,18.45
2019-04-29T13:14:33.237Z,20.08
2019-04-29T13:15:49.657Z,20.23
2019-04-29T13:17:14.302Z,19.55
2019-04-29T13:18:23.077Z,20.88
2019-04-29T13:19:39.671Z,17.45
2019-04-29T13:20:45.986Z,19.17
2019-04-29T13:21:50.256Z,22.35
2019-04-29T13:22:54.594Z,20.25
2019-04-29T13:24:12.514Z,20.15
2019-04-29T13:25:06.220Z,19.62
2019-04-29T13:26:10.697Z,18.52
2019-04-29T13:27:16.384Z,19.73
2019-04-29T13:28:29.899Z,20.12
2019-04-29T13:29:27.884Z,20.85
2019-04-29T13:30:33.279Z,21.37
2019-04-29T13:31:39.021Z,19.05
2019-04-29T13:32:43.706Z,18.82
2019-04-29T13:33:51.033Z,18.75
2019-04-29T13:35:00.241Z,18.20
2019-04-29T13:36:03.700Z,21.40
2019-04-29T13:37:18.238Z,23.77
2019-04-29T13:38:14.281Z,18.70
2019-04-29T13:39:18.752Z,19.52
2019-04-29T13:40:23.267Z,19.02
2019-04-29T13:41:27.860Z,20.72
2019-04-29T13:42:32.387Z,17.65
2019-04-29T13:43:36.809Z,18.17
2019-04-29T13:44:50.278Z,18.62
2019-04-29T13:45:55.867Z,18.07
2019-04-29T13:47:18.662Z,18.12
2019-04-29T13:48:54.660Z,16.50
2019-04-29T13:49:50.434Z,17.90
2019-04-29T13:51:00.107Z,17.85
2019-04-29T13:52:05.086Z,17.40
2019-04-29T13:53:11.675Z,17.65
2019-04-29T13:54:15.596Z,17.20
2019-04-29T13:55:46.177Z,16.95
2019-04-29T13:56:39.411Z,17.87
2019-04-29T13:57:32.329Z,18.15
2019-04-29T13:58:36.694Z,17.12
2019-04-29T13:59:49.413Z,17.20
2019-04-29T14:01:01.932Z,16.82
2019-04-29T14:02:14.800Z,17.20
2019-04-29T14:03:42.163Z,16.15
2019-04-29T14:04:50.605Z,19.07
2019-04-29T14:06:03.972Z,15.95
2019-04-29T14:07:01.157Z,16.65
2019-04-29T14:08:05.572Z,17.75
2019-04-29T14:09:10.064Z,17.55
2019-04-29T14:10:16.407Z,17.37
2019-04-29T14:11:22.006Z,15.93
2019-04-29T14:12:48.424Z,16.55
2019-04-29T14:13:33.460Z,16.32
2019-04-29T14:14:37.832Z,18.73
2019-04-29T14:15:42.590Z,15.35
2019-04-29T14:16:47.553Z,14.35
2019-04-29T14:17:53.122Z,16.00
2019-04-29T14:18:57.594Z,18.17
2019-04-29T14:20:02.081Z,18.25
2019-04-29T14:21:06.452Z,13.98
2019-04-29T14:22:21.501Z,13.75
2019-04-29T14:23:16.961Z,14.20
2019-04-29T14:24:21.458Z,13.45
2019-04-29T14:25:25.812Z,13.93
2019-04-29T14:26:30.434Z,14.87
2019-04-29T14:27:34.904Z,14.20
2019-04-29T14:28:39.238Z,13.58
2019-04-29T14:29:43.540Z,11.70